Dati Storici

Data ora Umidita' aria (%) Temperatura aria (°C) Rad globale (W/m²) Gonioanemometro (°) Tacoanemometro (m/s) Pioggia (mm)
18-06-2020 22:50 97.7 % 17.48 29.189 1.138 0 0
18-06-2020 22:40 97.7 % 17.652 16.7 1.259 0 0
18-06-2020 22:30 97.6 % 17.782 37.297 1.757 0 0
18-06-2020 22:20 97.6 % 18.052 13.602 -0.005 0 0
18-06-2020 22:10 97.6 % 18.051 -0.157 1.532 0 0
18-06-2020 22:00 97.6 % 18.146 19.68 2.91 0 0
18-06-2020 21:50 97 % 18.332 31.947 4.457 0 0
18-06-2020 21:40 95.2 % 18.61 18.947 1.997 0 0
18-06-2020 21:30 92.3 % 18.887 23.817 2.225 0 0
18-06-2020 21:20 88 % 19.207 32.522 1.991 0 0
18-06-2020 21:10 83.5 % 19.722 15.372 5.267 0 0
18-06-2020 21:00 79 % 20.37 12.56 4.103 0 0
18-06-2020 20:50 76.1 % 21.675 23.159 3.004 0 0
18-06-2020 20:40 75.4 % 22.054 350.078 -0.022 0 0
18-06-2020 20:30 75.9 % 22.032 97.48 -0.018 0 0
18-06-2020 20:20 75.6 % 22.025 130.405 -0.02 0 0
18-06-2020 20:10 75 % 22.241 106.667 0.644 0 0
18-06-2020 20:00 75.1 % 22.116 14.48 0.537 0 0
18-06-2020 19:50 72.5 % 22.556 96.538 0.516 0 0
18-06-2020 19:40 72 % 22.64 103.532 1.423 0 0

I dati sono presentati in modo automatico a scopo informativo. In seguito a verifica i dati possono subire modifiche o essere invalidati e non riportati negli archivi definitivi.